createdAt,value
2023-01-29T00:01:49.423Z,1.97
2023-01-29T00:06:51.981Z,2.03
2023-01-29T00:11:56.782Z,2.04
2023-01-29T00:16:59.330Z,2.06
2023-01-29T00:22:01.829Z,2.09
2023-01-29T00:27:06.355Z,2.11
2023-01-29T00:32:09.057Z,2.13
2023-01-29T00:37:11.780Z,2.16
2023-01-29T00:42:38.495Z,2.19
2023-01-29T00:47:40.987Z,2.20
2023-01-29T00:52:43.479Z,2.24
2023-01-29T00:57:47.638Z,2.34
2023-01-29T01:03:08.775Z,2.30
2023-01-29T01:08:25.769Z,2.34
2023-01-29T01:13:30.109Z,2.39
2023-01-29T01:18:32.851Z,2.42
2023-01-29T01:23:35.675Z,2.43
2023-01-29T01:28:39.634Z,2.42
2023-01-29T01:33:42.610Z,2.43
2023-01-29T01:38:45.498Z,2.46
2023-01-29T01:43:51.529Z,2.46
2023-01-29T01:48:58.810Z,2.49
2023-01-29T01:54:07.169Z,2.52
2023-01-29T01:59:13.996Z,2.54
2023-01-29T02:04:38.172Z,2.58
2023-01-29T02:09:46.318Z,2.60
2023-01-29T02:14:52.097Z,2.61
2023-01-29T02:20:03.589Z,2.62
2023-01-29T02:25:38.349Z,2.65
2023-01-29T02:30:50.509Z,2.66
2023-01-29T02:35:59.083Z,2.69
2023-01-29T02:41:06.383Z,2.71
2023-01-29T02:46:17.803Z,2.73
2023-01-29T02:51:25.274Z,2.74
2023-01-29T02:56:35.861Z,2.75
2023-01-29T03:01:46.522Z,2.75
2023-01-29T03:06:54.656Z,2.77
2023-01-29T03:12:02.275Z,2.82
2023-01-29T03:17:10.367Z,2.83
2023-01-29T03:22:16.528Z,2.87
2023-01-29T03:27:41.239Z,2.90
2023-01-29T03:32:47.561Z,2.92
2023-01-29T03:37:50.603Z,2.95
2023-01-29T03:43:04.122Z,2.97
2023-01-29T03:48:12.116Z,3.00
2023-01-29T03:53:22.838Z,3.02
2023-01-29T03:58:35.702Z,3.04
2023-01-29T04:03:42.956Z,3.08
2023-01-29T04:08:51.995Z,3.12
2023-01-29T04:13:54.873Z,3.16
2023-01-29T04:18:58.955Z,3.17
2023-01-29T04:24:01.571Z,3.20
2023-01-29T04:29:21.547Z,3.23
2023-01-29T04:34:29.701Z,3.25
2023-01-29T04:39:41.245Z,3.26
2023-01-29T04:44:54.546Z,3.27
2023-01-29T04:50:11.818Z,3.29
2023-01-29T04:55:21.458Z,3.31
2023-01-29T05:00:28.631Z,3.31
2023-01-29T05:05:32.513Z,3.34
2023-01-29T05:10:36.943Z,3.33
2023-01-29T05:15:41.270Z,3.33
2023-01-29T05:20:45.529Z,3.33
2023-01-29T05:25:49.122Z,3.38
2023-01-29T05:30:53.532Z,3.41
2023-01-29T05:35:59.176Z,3.44
2023-01-29T05:41:01.638Z,3.47
2023-01-29T05:46:04.124Z,3.49
2023-01-29T05:51:08.063Z,3.51
2023-01-29T05:56:10.531Z,3.54
2023-01-29T06:01:15.046Z,3.55
2023-01-29T06:06:18.911Z,3.58
2023-01-29T06:11:21.637Z,3.60
2023-01-29T06:16:24.200Z,3.60
2023-01-29T06:21:28.034Z,3.61
2023-01-29T06:26:30.587Z,3.60
2023-01-29T06:31:38.760Z,3.64
2023-01-29T06:36:43.161Z,3.65
2023-01-29T06:41:46.294Z,3.64
2023-01-29T06:46:48.796Z,3.65
2023-01-29T06:51:52.594Z,3.65
2023-01-29T06:56:56.181Z,3.65
2023-01-29T07:01:58.779Z,3.63
2023-01-29T07:07:02.680Z,3.65
2023-01-29T07:12:05.514Z,3.65
2023-01-29T07:17:07.988Z,3.63
2023-01-29T07:22:11.791Z,3.65
2023-01-29T07:27:14.299Z,3.69
2023-01-29T07:32:16.849Z,3.68
2023-01-29T07:37:20.789Z,3.70
2023-01-29T07:42:23.377Z,3.68
2023-01-29T07:47:25.869Z,3.70
2023-01-29T07:52:30.418Z,3.70
2023-01-29T07:57:32.888Z,3.69
2023-01-29T08:02:35.384Z,3.65
2023-01-29T08:07:39.210Z,3.62
2023-01-29T08:12:41.680Z,3.63
2023-01-29T08:17:57.192Z,3.65
2023-01-29T08:23:03.351Z,3.64
2023-01-29T08:28:06.165Z,3.66
2023-01-29T08:33:08.669Z,3.66
2023-01-29T08:38:12.500Z,3.68
2023-01-29T08:43:15.266Z,3.73
2023-01-29T08:48:17.741Z,3.75
2023-01-29T08:53:24.565Z,3.81
2023-01-29T08:58:27.075Z,3.84
2023-01-29T09:03:29.542Z,3.84
2023-01-29T09:08:33.429Z,3.89
2023-01-29T09:13:36.013Z,3.93
2023-01-29T09:18:38.531Z,4.00
2023-01-29T09:23:42.321Z,4.06
2023-01-29T09:28:44.792Z,4.09
2023-01-29T09:33:47.266Z,4.14
2023-01-29T09:38:51.048Z,4.15
2023-01-29T09:43:58.820Z,4.18
2023-01-29T09:49:05.198Z,4.25
2023-01-29T09:54:18.637Z,4.32
2023-01-29T09:59:23.536Z,4.36
2023-01-29T10:05:02.688Z,4.39
2023-01-29T10:10:28.038Z,4.45
2023-01-29T10:15:45.168Z,4.46
2023-01-29T10:21:04.435Z,4.46
2023-01-29T10:26:12.308Z,4.49
2023-01-29T10:31:19.306Z,4.51
2023-01-29T10:36:27.095Z,4.54
2023-01-29T10:41:54.794Z,4.49
2023-01-29T10:47:17.292Z,4.44
2023-01-29T10:52:34.774Z,4.43
2023-01-29T10:57:53.582Z,4.41
2023-01-29T11:02:56.211Z,4.46
2023-01-29T11:08:06.137Z,4.47
2023-01-29T11:13:15.586Z,4.51
2023-01-29T11:18:18.134Z,4.53
2023-01-29T11:23:28.155Z,4.53
2023-01-29T11:28:40.288Z,4.51
2023-01-29T11:33:43.206Z,4.50
2023-01-29T11:38:45.677Z,4.52
2023-01-29T11:43:49.502Z,4.54
2023-01-29T11:48:58.983Z,4.55
2023-01-29T11:54:06.647Z,4.53
2023-01-29T11:59:28.152Z,4.50
2023-01-29T12:04:31.505Z,4.49
2023-01-29T12:09:34.015Z,4.53
2023-01-29T12:14:38.906Z,4.48
2023-01-29T12:19:45.316Z,4.49
2023-01-29T12:24:54.670Z,4.54
2023-01-29T12:30:04.847Z,4.53
2023-01-29T12:35:13.938Z,4.51
2023-01-29T12:40:18.439Z,4.50
2023-01-29T12:45:25.736Z,4.47
2023-01-29T12:50:30.961Z,4.45
2023-01-29T12:55:38.966Z,4.41
2023-01-29T13:00:45.712Z,4.37
2023-01-29T13:05:52.087Z,4.35
2023-01-29T13:10:56.088Z,4.35
2023-01-29T13:16:01.403Z,4.35
2023-01-29T13:21:05.220Z,4.35
2023-01-29T13:26:07.941Z,4.35
2023-01-29T13:31:24.488Z,4.38
2023-01-29T13:36:30.012Z,4.39
2023-01-29T13:41:35.706Z,4.38
2023-01-29T13:46:42.814Z,4.42
2023-01-29T13:51:45.294Z,4.43
2023-01-29T13:56:59.292Z,4.44
2023-01-29T14:02:19.559Z,4.41
2023-01-29T14:07:51.164Z,4.41
2023-01-29T14:12:55.443Z,4.40
2023-01-29T14:18:15.814Z,4.42
2023-01-29T14:23:28.990Z,4.42
2023-01-29T14:28:34.140Z,4.37
2023-01-29T14:33:42.369Z,4.39
2023-01-29T14:38:51.080Z,4.38
2023-01-29T14:44:28.268Z,4.39
2023-01-29T14:49:51.414Z,4.34
2023-01-29T14:54:58.301Z,4.35
2023-01-29T15:00:05.255Z,4.35
2023-01-29T15:05:15.082Z,4.36
2023-01-29T15:10:23.206Z,4.34
2023-01-29T15:15:36.270Z,4.33
2023-01-29T15:20:41.740Z,4.32
2023-01-29T15:25:51.038Z,4.34
2023-01-29T15:30:56.306Z,4.31
2023-01-29T15:36:07.319Z,4.31
2023-01-29T15:41:19.185Z,4.29
2023-01-29T15:46:25.898Z,4.29
2023-01-29T15:51:30.246Z,4.26
2023-01-29T15:56:37.184Z,4.25
2023-01-29T16:01:39.855Z,4.24
2023-01-29T16:06:44.674Z,4.21
2023-01-29T16:11:50.361Z,4.19
2023-01-29T16:16:53.280Z,4.18
2023-01-29T16:22:01.077Z,4.15
2023-01-29T16:27:12.110Z,4.13
2023-01-29T16:32:16.328Z,4.11
2023-01-29T16:37:24.621Z,4.08
2023-01-29T16:42:31.506Z,4.04
2023-01-29T16:47:36.049Z,4.03
2023-01-29T16:52:40.194Z,4.02
2023-01-29T16:57:52.781Z,4.00
2023-01-29T17:03:00.378Z,4.00
2023-01-29T17:08:05.799Z,3.99
2023-01-29T17:13:16.176Z,3.98
2023-01-29T17:18:20.660Z,4.00
2023-01-29T17:23:25.040Z,3.98
2023-01-29T17:28:28.507Z,3.97
2023-01-29T17:33:35.470Z,3.95
2023-01-29T17:38:41.753Z,3.96
2023-01-29T17:43:46.469Z,3.94
2023-01-29T17:48:52.524Z,3.94
2023-01-29T17:53:59.293Z,3.90
2023-01-29T17:59:05.961Z,3.89
2023-01-29T18:10:17.741Z,3.85
2023-01-29T18:15:34.807Z,3.83
2023-01-29T18:20:40.830Z,3.80
2023-01-29T18:25:45.771Z,3.79
2023-01-29T18:30:51.276Z,3.78
2023-01-29T18:35:56.051Z,3.78
2023-01-29T18:41:10.622Z,3.76
2023-01-29T18:46:16.706Z,3.74
2023-01-29T18:51:22.499Z,3.69
2023-01-29T18:56:26.022Z,3.66
2023-01-29T19:01:34.573Z,3.63
2023-01-29T19:06:38.227Z,3.59
2023-01-29T19:11:41.189Z,3.56
2023-01-29T19:16:46.678Z,3.54
2023-01-29T19:21:49.765Z,3.52
2023-01-29T19:32:48.343Z,3.49
2023-01-29T19:43:38.088Z,3.44
2023-01-29T19:48:40.769Z,3.46
2023-01-29T19:53:44.501Z,3.47
2023-01-29T19:58:48.748Z,3.45
2023-01-29T20:03:51.681Z,3.49
2023-01-29T20:08:54.751Z,3.46
2023-01-29T20:13:59.060Z,3.44
2023-01-29T20:19:13.987Z,3.49
2023-01-29T20:24:17.259Z,3.50
2023-01-29T20:29:21.133Z,3.51
2023-01-29T20:34:23.964Z,3.54
2023-01-29T20:39:26.491Z,3.55
2023-01-29T20:44:30.267Z,3.54
2023-01-29T20:49:32.791Z,3.52
2023-01-29T20:54:35.273Z,3.52
2023-01-29T20:59:39.270Z,3.48
2023-01-29T21:04:44.094Z,3.45
2023-01-29T21:09:46.821Z,3.43
2023-01-29T21:14:50.711Z,3.41
2023-01-29T21:19:53.171Z,3.41
2023-01-29T21:24:55.760Z,3.40
2023-01-29T21:29:59.786Z,3.41
2023-01-29T21:35:02.272Z,3.43
2023-01-29T21:40:06.291Z,3.42
2023-01-29T21:45:11.022Z,3.44
2023-01-29T21:50:13.761Z,3.42
2023-01-29T21:55:16.663Z,3.46
2023-01-29T22:00:21.086Z,3.43
2023-01-29T22:05:23.792Z,3.40
2023-01-29T22:10:26.304Z,3.42
2023-01-29T22:15:30.284Z,3.43
2023-01-29T22:20:32.894Z,3.40
2023-01-29T22:25:35.738Z,3.41
2023-01-29T22:30:39.605Z,3.40
2023-01-29T22:35:42.081Z,3.43
2023-01-29T22:40:50.152Z,3.39
2023-01-29T22:45:54.018Z,3.40
2023-01-29T22:51:10.116Z,3.42
2023-01-29T22:56:12.947Z,3.40
2023-01-29T23:01:19.058Z,3.38
2023-01-29T23:06:22.278Z,3.35
2023-01-29T23:11:24.791Z,3.31
2023-01-29T23:16:29.513Z,3.30
2023-01-29T23:21:32.076Z,3.28
2023-01-29T23:26:52.105Z,3.29
2023-01-29T23:31:55.991Z,3.30
2023-01-29T23:36:58.454Z,3.33
2023-01-29T23:42:01.259Z,3.32
2023-01-29T23:47:05.129Z,3.35
2023-01-29T23:52:07.710Z,3.37
2023-01-29T23:57:10.246Z,3.44
